Etusivu
METAR-TAF:

METAR-TAF

Lentoasemat :

Jällivaaran lentoasema

Jällivaara, Ruotsi

Leveyspiiri: 67-09N, Pituuspiiri: 020-39E, korkeus merenpinnasta: 359 m

Tämänhetkinen sää

Tämä raportti tehtiin 10 minuuttia sitten, kello 00.50 UTC
Tuuli 5 kn luoteesta
Lämpötila 15°C
Kosteus 88%
Ilmanpaine 1005 hPa
Näkyvyys 10 km tai enemmän

METAR: ESNG 220050Z AUTO 31005KT 9999 OVC120/// 15/13 Q1005

Aika: 03:00 (01:00 UTC)


TAF: puuttuu

Säähavainnot ja -ennusteet yli 4000 lentoasemalta (METAR- ja TAF-raportit).

Käytössä olevat sääasemat on merkitty karttaan keltaisilla ja punaisilla pisteillä.

Aseta hiiri pisteen päälle nähdäksesi sääaseman nimen.

Klikkaa sitten nähdäksesi säähavainnot ja -ennusteet.

Kartan vaihtaminen: klikkaa mustalla rastilla varustettuja vihreitä pisteitä, niin voit zoomata sisään; viivalla varustettua vihreää pistettä, niin voit zoomata ulos tai vihreitä nuolia, niin pääset viereisille kartoille.


METAR-TAF: